Time;durP1;ratioP1;P1;durP2;ratioP2;P2;SDS_P1;SDS_P2;PMS_P1;PMS_P2;Temp;Humidity;BMP_temperature;BMP_pressure;BME280_temperature;BME280_humidity;BME280_pressure;Samples;Min_cycle;Max_cycle;Signal;HPM_P1;HPM_P2
2022/02/06 00:02:28;;;;;;;50.23;9.83;;;8.70;99.90;;;;;;5089500;28;20381;-85
2022/02/06 00:04:57;;;;;;;54.37;11.00;;;8.70;99.90;;;;;;5087126;28;20345;-82
2022/02/06 00:07:23;;;;;;;54.33;10.60;;;8.70;99.90;;;;;;5089408;28;20205;-84
2022/02/06 00:09:50;;;;;;;49.33;11.57;;;8.70;99.90;;;;;;5072957;28;20233;-86
2022/02/06 00:12:17;;;;;;;48.07;11.10;;;8.80;99.90;;;;;;5069290;28;20201;-81
2022/02/06 00:14:44;;;;;;;56.83;10.70;;;8.80;99.90;;;;;;5084632;22;20235;-87
2022/02/06 00:17:11;;;;;;;40.70;10.77;;;8.80;99.90;;;;;;5092236;28;20209;-86
2022/02/06 00:19:40;;;;;;;45.93;12.37;;;8.80;99.90;;;;;;5088046;28;20189;-84
2022/02/06 00:22:11;;;;;;;41.40;9.30;;;8.80;99.90;;;;;;5088898;28;20208;-85
2022/02/06 00:24:44;;;;;;;56.33;11.17;;;8.80;99.90;;;;;;5089179;28;20266;-87
2022/02/06 00:27:22;;;;;;;58.33;11.03;;;8.80;99.90;;;;;;5093182;28;20204;-80
2022/02/06 00:29:54;;;;;;;50.13;12.27;;;8.80;99.90;;;;;;5112043;28;20307;-83
2022/02/06 00:32:30;;;;;;;49.13;10.63;;;8.80;99.90;;;;;;5131576;27;20211;-82
2022/02/06 00:35:21;;;;;;;56.40;10.67;;;8.80;99.90;;;;;;5129380;27;20206;-85
2022/02/06 00:40:47;;;;;;;54.83;11.20;;;8.80;99.90;;;;;;5113172;28;20187;-87
2022/02/06 00:43:14;;;;;;;49.77;10.40;;;8.80;99.90;;;;;;5113024;28;20192;-86
2022/02/06 00:45:41;;;;;;;56.27;10.80;;;8.80;99.90;;;;;;5112678;28;20203;-81
2022/02/06 00:48:08;;;;;;;61.00;11.40;;;8.80;99.90;;;;;;5112544;28;20204;-88
2022/02/06 00:50:38;;;;;;;49.87;9.70;;;8.80;99.90;;;;;;5112370;28;20228;-84
2022/02/06 00:53:13;;;;;;;44.47;9.43;;;8.80;99.90;;;;;;5111393;28;20659;-84
2022/02/06 00:55:41;;;;;;;57.57;11.07;;;8.80;99.90;;;;;;5110672;28;20203;-85
2022/02/06 00:58:07;;;;;;;66.37;13.03;;;8.80;99.90;;;;;;5110780;28;20188;-89
2022/02/06 01:00:35;;;;;;;42.63;9.63;;;8.80;99.90;;;;;;5112677;28;20211;-88
2022/02/06 01:03:01;;;;;;;63.20;12.03;;;8.80;99.90;;;;;;5112171;28;20260;-88
2022/02/06 01:05:28;;;;;;;41.53;9.43;;;8.80;99.90;;;;;;5113275;28;20207;-82
2022/02/06 01:07:55;;;;;;;51.97;9.77;;;8.80;99.90;;;;;;5111449;28;20203;-82
2022/02/06 01:10:24;;;;;;;59.53;11.60;;;8.80;99.90;;;;;;5110860;28;20741;-82
2022/02/06 01:12:56;;;;;;;44.73;8.67;;;8.80;99.90;;;;;;5110615;27;20212;-83
2022/02/06 01:15:27;;;;;;;53.77;10.50;;;8.80;99.90;;;;;;5109734;28;20239;-80
2022/02/06 01:17:59;;;;;;;45.10;9.43;;;8.80;99.90;;;;;;5108799;28;20242;-83
2022/02/06 01:20:31;;;;;;;45.67;10.33;;;8.80;99.90;;;;;;5108254;28;20292;-88
2022/02/06 01:23:03;;;;;;;53.37;10.80;;;8.80;99.90;;;;;;5107474;28;20494;-82
2022/02/06 01:25:36;;;;;;;52.20;9.77;;;8.80;99.90;;;;;;5110831;28;20207;-80
2022/02/06 01:28:08;;;;;;;54.77;9.73;;;8.90;99.90;;;;;;5110710;28;20234;-84
2022/02/06 01:30:44;;;;;;;51.63;10.33;;;8.90;99.90;;;;;;5111572;28;20223;-84
2022/02/06 01:33:15;;;;;;;57.20;12.67;;;8.90;99.90;;;;;;5112347;27;20203;-83
2022/02/06 01:35:48;;;;;;;61.60;10.73;;;8.90;99.90;;;;;;5112147;28;20192;-85
2022/02/06 01:38:19;;;;;;;46.63;9.67;;;8.90;99.90;;;;;;5111609;28;20196;-83
2022/02/06 01:41:00;;;;;;;44.80;10.57;;;8.90;99.90;;;;;;5110408;27;20970;-88
2022/02/06 01:43:33;;;;;;;45.00;9.17;;;8.90;99.90;;;;;;5113156;22;20750;-86
2022/02/06 01:46:31;;;;;;;52.00;9.23;;;8.90;99.90;;;;;;5091135;28;20284;-86
2022/02/06 02:00:38;;;;;;;44.30;9.10;;;9.00;99.90;;;;;;5070959;28;20619;-86
2022/02/06 02:03:11;;;;;;;52.83;10.20;;;9.00;99.90;;;;;;5062351;28;20207;-88
2022/02/06 02:05:57;;;;;;;46.40;9.73;;;9.00;99.90;;;;;;5066458;28;20215;-88
2022/02/06 02:08:57;;;;;;;42.73;9.70;;;9.00;99.90;;;;;;5049659;28;20517;-90
2022/02/06 02:14:36;;;;;;;57.17;9.50;;;9.00;99.90;;;;;;5028394;28;20233;-84
2022/02/06 02:17:27;;;;;;;53.93;9.80;;;9.00;99.90;;;;;;5065976;28;20502;-83
2022/02/06 02:23:20;;;;;;;48.33;9.93;;;9.00;99.90;;;;;;5065211;28;20640;-85
2022/02/06 02:45:18;;;;;;;48.33;10.23;;;8.90;99.90;;;;;;5087608;28;20293;-83
2022/02/06 02:47:48;;;;;;;59.50;11.33;;;8.90;99.90;;;;;;5066258;28;20197;-85
2022/02/06 02:50:18;;;;;;;55.13;10.17;;;8.90;99.90;;;;;;5066214;28;20762;-80
2022/02/06 02:53:07;;;;;;;51.50;10.63;;;8.90;99.90;;;;;;5066377;28;20961;-85
2022/02/06 02:55:50;;;;;;;49.83;9.23;;;8.90;99.90;;;;;;5049629;28;20194;-82
2022/02/06 02:58:26;;;;;;;46.33;10.17;;;8.90;99.90;;;;;;5048218;28;20197;-84
2022/02/06 03:01:01;;;;;;;62.97;11.20;;;8.90;99.90;;;;;;5055493;28;20232;-82
2022/02/06 03:03:31;;;;;;;62.33;11.77;;;8.90;99.90;;;;;;5069614;28;20216;-87
2022/02/06 03:05:59;;;;;;;51.53;10.53;;;8.90;99.90;;;;;;5069054;28;20657;-88
2022/02/06 03:08:27;;;;;;;55.73;11.27;;;8.90;99.90;;;;;;5069500;28;20223;-85
2022/02/06 03:10:58;;;;;;;48.70;10.23;;;8.90;99.90;;;;;;5069095;28;20224;-82
2022/02/06 03:13:33;;;;;;;49.73;9.63;;;8.90;99.90;;;;;;5088145;28;20211;-83
2022/02/06 03:16:05;;;;;;;56.77;11.77;;;8.90;99.90;;;;;;5088608;28;20230;-85
2022/02/06 03:18:42;;;;;;;45.23;10.80;;;8.90;99.90;;;;;;5088377;28;20192;-85
2022/02/06 03:21:16;;;;;;;53.90;9.90;;;8.90;99.90;;;;;;5081681;28;20211;-85
2022/02/06 03:23:49;;;;;;;51.60;10.30;;;8.90;99.90;;;;;;5067189;28;20208;-83
2022/02/06 03:26:22;;;;;;;50.40;11.33;;;8.90;99.90;;;;;;5067444;28;20198;-83
2022/02/06 03:28:49;;;;;;;58.50;11.20;;;8.90;99.90;;;;;;5066250;28;20224;-81
2022/02/06 03:31:16;;;;;;;58.93;11.97;;;8.90;99.90;;;;;;5066407;28;20723;-80
2022/02/06 03:33:46;;;;;;;58.70;12.63;;;8.90;99.90;;;;;;5065830;28;20189;-82
2022/02/06 03:36:13;;;;;;;54.00;9.37;;;8.90;99.90;;;;;;5069960;28;20231;-81
2022/02/06 03:38:40;;;;;;;52.10;10.33;;;8.90;99.90;;;;;;5086779;28;20207;-84
2022/02/06 03:41:10;;;;;;;53.40;9.50;;;8.90;99.90;;;;;;5088143;28;20507;-82
2022/02/06 03:43:48;;;;;;;48.00;9.83;;;8.90;99.90;;;;;;5065354;28;20264;-83
2022/02/06 03:46:20;;;;;;;48.40;11.23;;;8.90;99.90;;;;;;5047576;28;20208;-82
2022/02/06 03:48:50;;;;;;;52.30;10.80;;;8.90;99.90;;;;;;5065036;28;20247;-80
2022/02/06 03:51:20;;;;;;;53.77;11.23;;;8.90;99.90;;;;;;5066873;28;20235;-82
2022/02/06 03:53:49;;;;;;;58.53;10.13;;;8.90;99.90;;;;;;5058773;28;20205;-84
2022/02/06 03:56:16;;;;;;;54.30;10.00;;;8.90;99.90;;;;;;5045908;28;20237;-86
2022/02/06 03:58:44;;;;;;;79.57;12.10;;;8.90;99.90;;;;;;5045442;28;20194;-82
2022/02/06 04:01:11;;;;;;;50.93;10.83;;;8.90;99.90;;;;;;5047229;28;20586;-84
2022/02/06 04:03:38;;;;;;;49.53;10.10;;;8.90;99.90;;;;;;5050079;28;20213;-81
2022/02/06 04:06:05;;;;;;;47.03;8.93;;;8.90;99.90;;;;;;5048853;28;20209;-83
2022/02/06 04:08:34;;;;;;;51.70;11.27;;;8.90;99.90;;;;;;5049513;28;20209;-83
2022/02/06 04:11:04;;;;;;;52.03;11.20;;;8.90;99.90;;;;;;5049454;28;20253;-82
2022/02/06 04:13:34;;;;;;;48.13;9.33;;;8.90;99.90;;;;;;5070729;28;20212;-78
2022/02/06 04:16:02;;;;;;;43.83;11.57;;;9.00;99.90;;;;;;5069426;28;20201;-82
2022/02/06 04:18:37;;;;;;;49.93;10.80;;;9.00;99.90;;;;;;5051337;28;20458;-80
2022/02/06 04:21:04;;;;;;;51.90;10.60;;;9.00;99.90;;;;;;5048965;28;20194;-81
2022/02/06 04:23:31;;;;;;;51.03;10.23;;;9.00;99.90;;;;;;5049032;28;20202;-82
2022/02/06 04:25:57;;;;;;;52.93;11.47;;;9.00;99.90;;;;;;5048030;28;20539;-79
2022/02/06 04:28:24;;;;;;;59.10;11.97;;;9.00;99.90;;;;;;5051974;28;20194;-85
2022/02/06 04:30:51;;;;;;;51.97;10.80;;;9.00;99.90;;;;;;5051731;28;20221;-86
2022/02/06 04:33:19;;;;;;;51.93;11.13;;;9.00;99.90;;;;;;5051874;28;20201;-80
2022/02/06 04:35:49;;;;;;;52.40;9.30;;;9.00;99.90;;;;;;5050155;28;20297;-82
2022/02/06 04:38:36;;;;;;;45.60;8.43;;;9.00;99.90;;;;;;5051162;28;20198;-86
2022/02/06 04:41:11;;;;;;;42.73;8.90;;;9.00;99.90;;;;;;5052577;28;20612;-81
2022/02/06 05:25:34;;;;;;;43.70;8.93;;;9.10;99.90;;;;;;4948766;29;20232;-85
2022/02/06 05:28:23;;;;;;;35.13;7.33;;;9.10;99.90;;;;;;5045933;28;20281;-85
2022/02/06 05:30:54;;;;;;;38.67;8.53;;;9.10;99.90;;;;;;5087847;28;20252;-84
2022/02/06 05:33:21;;;;;;;45.60;8.47;;;9.10;99.90;;;;;;5089701;28;20224;-79
2022/02/06 05:35:48;;;;;;;40.93;8.90;;;9.10;99.90;;;;;;5084986;28;20259;-88
2022/02/06 05:38:16;;;;;;;37.77;7.77;;;9.00;99.90;;;;;;5069090;28;20481;-87
2022/02/06 05:40:43;;;;;;;43.23;8.37;;;9.00;99.90;;;;;;5068817;28;20227;-81
2022/02/06 05:43:09;;;;;;;53.80;10.83;;;9.00;99.90;;;;;;5068289;28;20611;-86
2022/02/06 05:45:36;;;;;;;43.63;7.93;;;9.00;99.90;;;;;;5068861;28;20209;-84
2022/02/06 05:48:04;;;;;;;44.37;8.80;;;9.00;99.90;;;;;;5067498;28;20771;-81
2022/02/06 05:50:32;;;;;;;38.47;7.50;;;9.00;99.90;;;;;;5067021;28;20217;-82
2022/02/06 05:52:59;;;;;;;45.93;9.63;;;9.00;99.90;;;;;;5089339;22;20255;-83
2022/02/06 05:55:28;;;;;;;38.37;9.40;;;9.00;99.90;;;;;;5087813;28;20832;-83
2022/02/06 05:57:54;;;;;;;38.13;8.70;;;9.00;99.90;;;;;;5085394;28;20204;-82
2022/02/06 06:00:21;;;;;;;33.03;8.20;;;9.00;99.90;;;;;;5089065;28;20772;-82
2022/02/06 06:02:48;;;;;;;50.80;9.93;;;9.10;99.90;;;;;;5087956;28;20620;-83
2022/02/06 06:05:15;;;;;;;43.20;8.53;;;9.10;99.90;;;;;;5088216;28;20632;-82
2022/02/06 06:07:43;;;;;;;51.37;9.37;;;9.10;99.90;;;;;;5089387;28;20204;-84
2022/02/06 06:10:10;;;;;;;39.57;8.87;;;9.10;99.90;;;;;;5089827;28;20231;-82
2022/02/06 06:12:39;;;;;;;40.73;7.83;;;9.10;99.90;;;;;;5081284;28;20204;-85
2022/02/06 06:15:07;;;;;;;43.40;7.57;;;9.10;99.90;;;;;;5067937;28;20193;-84
2022/02/06 06:17:39;;;;;;;38.27;8.43;;;9.10;99.90;;;;;;5067267;28;20209;-82
2022/02/06 06:20:11;;;;;;;45.73;8.40;;;9.10;99.90;;;;;;5083878;28;20204;-80
2022/02/06 06:22:39;;;;;;;38.70;8.93;;;9.10;99.90;;;;;;5089404;28;20870;-83
2022/02/06 06:25:07;;;;;;;37.73;8.33;;;9.10;99.90;;;;;;5088284;28;20295;-83
2022/02/06 06:27:34;;;;;;;37.13;8.67;;;9.10;99.90;;;;;;5077745;28;20274;-86
2022/02/06 06:30:03;;;;;;;42.93;8.90;;;9.10;99.90;;;;;;5068532;28;20205;-82
2022/02/06 06:32:29;;;;;;;37.53;8.03;;;9.10;99.90;;;;;;5060376;28;20786;-83
2022/02/06 06:34:57;;;;;;;42.00;6.93;;;9.10;99.90;;;;;;5067976;28;20201;-84
2022/02/06 06:37:24;;;;;;;36.80;7.20;;;9.20;99.90;;;;;;5067511;28;20543;-81
2022/02/06 06:39:51;;;;;;;32.40;8.53;;;9.20;99.90;;;;;;5067562;28;20225;-83
2022/02/06 06:42:18;;;;;;;34.97;8.50;;;9.20;99.90;;;;;;5048914;28;20198;-82
2022/02/06 06:44:45;;;;;;;37.40;8.43;;;9.10;99.90;;;;;;5048701;28;20202;-80
2022/02/06 06:47:13;;;;;;;46.23;9.83;;;9.20;99.90;;;;;;5047164;28;20263;-81
2022/02/06 06:49:40;;;;;;;40.97;9.10;;;9.20;99.90;;;;;;5048206;28;20202;-80
2022/02/06 06:52:08;;;;;;;40.47;8.93;;;9.20;99.90;;;;;;5047851;28;20241;-79
2022/02/06 06:54:39;;;;;;;40.90;9.37;;;9.20;99.90;;;;;;5046751;28;20213;-83
2022/02/06 06:57:12;;;;;;;44.77;8.00;;;9.20;99.90;;;;;;5047080;28;20210;-80
2022/02/06 07:00:08;;;;;;;50.27;8.90;;;9.20;99.90;;;;;;5047391;28;20256;-84
2022/02/06 07:02:35;;;;;;;35.53;8.33;;;9.20;99.90;;;;;;5047414;28;20205;-84
2022/02/06 07:05:04;;;;;;;39.00;7.00;;;9.20;99.90;;;;;;5047392;28;20205;-84
2022/02/06 07:07:32;;;;;;;42.23;8.10;;;9.20;99.90;;;;;;5047102;28;20216;-87
2022/02/06 07:10:00;;;;;;;44.33;8.07;;;9.30;99.90;;;;;;5047742;28;20199;-86
2022/02/06 07:12:27;;;;;;;36.57;8.00;;;9.20;99.90;;;;;;5048142;28;20233;-84
2022/02/06 07:14:54;;;;;;;37.53;8.27;;;9.20;99.90;;;;;;5047828;28;20201;-84
2022/02/06 07:17:21;;;;;;;43.57;8.63;;;9.30;99.90;;;;;;5047979;28;20206;-82
2022/02/06 07:19:50;;;;;;;39.97;8.20;;;9.30;99.90;;;;;;5050183;28;20648;-85
2022/02/06 07:22:19;;;;;;;46.07;9.30;;;9.20;99.90;;;;;;5066483;28;20202;-84
2022/02/06 07:24:47;;;;;;;49.50;9.20;;;9.20;99.90;;;;;;5066769;28;20236;-81
2022/02/06 07:27:22;;;;;;;37.17;8.90;;;9.20;99.90;;;;;;5065358;28;20494;-86
2022/02/06 07:29:49;;;;;;;37.47;9.63;;;9.20;99.90;;;;;;5054747;28;20213;-85
2022/02/06 07:32:16;;;;;;;33.63;9.40;;;9.30;99.90;;;;;;5045632;28;20226;-83
2022/02/06 07:34:44;;;;;;;46.77;8.73;;;9.30;99.90;;;;;;5048195;28;20198;-82
2022/02/06 07:37:12;;;;;;;47.77;10.03;;;9.30;99.90;;;;;;5051354;28;20213;-84
2022/02/06 07:39:39;;;;;;;42.57;9.07;;;9.30;99.90;;;;;;5052690;28;20941;-79
2022/02/06 07:42:09;;;;;;;43.17;8.67;;;9.30;99.90;;;;;;5052416;28;20217;-84
2022/02/06 07:44:36;;;;;;;45.57;10.93;;;9.30;99.90;;;;;;5053438;28;20280;-85
2022/02/06 07:47:13;;;;;;;54.33;9.80;;;9.30;99.90;;;;;;5052968;28;20198;-83
2022/02/06 07:49:40;;;;;;;43.10;9.20;;;9.30;99.90;;;;;;5053280;28;20194;-89
2022/02/06 07:52:07;;;;;;;47.03;10.87;;;9.20;99.90;;;;;;5051956;28;20277;-89
2022/02/06 07:54:35;;;;;;;40.37;8.77;;;9.20;99.90;;;;;;5052777;28;20202;-84
2022/02/06 07:57:04;;;;;;;53.40;10.73;;;9.20;99.90;;;;;;5051787;28;20194;-86
2022/02/06 07:59:31;;;;;;;54.20;10.50;;;9.20;99.90;;;;;;5053601;28;20247;-86
2022/02/06 08:01:58;;;;;;;46.53;9.83;;;9.20;99.90;;;;;;5072999;28;20209;-93
2022/02/06 08:04:25;;;;;;;49.90;9.40;;;9.20;99.90;;;;;;5074427;28;20204;-87
2022/02/06 08:07:04;;;;;;;52.43;12.07;;;9.20;99.90;;;;;;5016608;28;20439;-89
2022/02/06 08:12:14;;;;;;;56.13;10.20;;;9.20;99.90;;;;;;5049023;28;20542;-84
2022/02/06 08:14:51;;;;;;;64.07;12.53;;;9.20;99.90;;;;;;5052021;28;20556;-79
2022/02/06 08:17:19;;;;;;;47.40;9.67;;;9.20;99.90;;;;;;5058148;28;20962;-86
2022/02/06 08:19:46;;;;;;;59.17;11.97;;;9.20;99.90;;;;;;5073944;28;20204;-86
2022/02/06 08:22:13;;;;;;;67.70;12.23;;;9.10;99.90;;;;;;5063215;28;20210;-89
2022/02/06 08:24:40;;;;;;;58.33;12.53;;;9.20;99.90;;;;;;5054325;28;20194;-85
2022/02/06 08:27:07;;;;;;;63.63;11.50;;;9.10;99.90;;;;;;5054569;28;20205;-87
2022/02/06 08:29:41;;;;;;;60.37;11.50;;;9.10;99.90;;;;;;5064661;28;20201;-93
2022/02/06 08:32:09;;;;;;;68.50;12.23;;;9.10;99.90;;;;;;5073907;28;20225;-90
2022/02/06 08:34:35;;;;;;;59.70;10.57;;;9.10;99.90;;;;;;5074544;28;20193;-85
2022/02/06 08:37:04;;;;;;;59.80;10.93;;;9.10;99.90;;;;;;5062522;28;20202;-86
2022/02/06 08:39:32;;;;;;;52.30;12.57;;;9.10;99.90;;;;;;5053369;28;20194;-83
2022/02/06 08:41:59;;;;;;;58.57;11.40;;;9.10;99.90;;;;;;5053601;28;20328;-91
2022/02/06 08:44:26;;;;;;;50.20;11.10;;;9.10;99.90;;;;;;5054593;28;20205;-87
2022/02/06 08:46:54;;;;;;;48.03;10.10;;;9.10;99.90;;;;;;5052427;28;20509;-89
2022/02/06 08:49:22;;;;;;;55.37;10.13;;;9.10;99.90;;;;;;5053321;28;20216;-90
2022/02/06 08:51:49;;;;;;;52.90;10.80;;;9.10;99.90;;;;;;5052509;28;20233;-89
2022/02/06 08:54:15;;;;;;;60.53;12.80;;;9.10;99.90;;;;;;5053135;28;20196;-85
2022/02/06 08:56:42;;;;;;;56.73;11.63;;;9.10;99.90;;;;;;5052303;28;20201;-87
2022/02/06 08:59:10;;;;;;;66.97;11.17;;;9.10;99.90;;;;;;5052489;28;20213;-88
2022/02/06 09:01:38;;;;;;;59.17;9.90;;;9.10;99.90;;;;;;5052459;28;20198;-86
2022/02/06 09:04:06;;;;;;;58.20;9.93;;;9.10;99.90;;;;;;5051891;28;20190;-85
2022/02/06 09:06:36;;;;;;;50.43;10.67;;;9.20;99.90;;;;;;5050171;28;20226;-86
2022/02/06 09:09:03;;;;;;;52.50;11.70;;;9.20;99.90;;;;;;5052243;28;20264;-92
2022/02/06 09:11:31;;;;;;;51.53;11.67;;;9.10;99.90;;;;;;5053687;28;20253;-91
2022/02/06 09:13:58;;;;;;;49.10;11.13;;;9.20;99.90;;;;;;5050307;28;20513;-88
2022/02/06 09:16:26;;;;;;;46.77;9.80;;;9.10;99.90;;;;;;5052680;28;20201;-87
2022/02/06 09:18:53;;;;;;;45.07;9.80;;;9.10;99.90;;;;;;5054173;28;20202;-90
2022/02/06 09:21:23;;;;;;;51.80;9.77;;;9.10;99.90;;;;;;5072618;28;20193;-92
2022/02/06 09:23:51;;;;;;;55.63;11.57;;;9.10;99.90;;;;;;5072518;28;20197;-89
2022/02/06 09:26:19;;;;;;;49.80;10.93;;;9.10;99.90;;;;;;5072675;28;20205;-86
2022/02/06 09:28:45;;;;;;;55.37;10.23;;;9.10;99.90;;;;;;5072750;28;20224;-90
2022/02/06 09:31:12;;;;;;;50.67;9.23;;;9.10;99.90;;;;;;5072964;28;20209;-89
2022/02/06 09:36:05;;;;;;;52.73;10.87;;;9.10;99.90;;;;;;5071408;28;20189;-91
2022/02/06 09:38:34;;;;;;;42.37;9.03;;;9.20;99.90;;;;;;5069774;28;20201;-88
2022/02/06 09:41:01;;;;;;;48.40;10.40;;;9.20;99.90;;;;;;5052808;28;20202;-89
2022/02/06 09:43:30;;;;;;;50.27;8.37;;;9.20;99.90;;;;;;5051834;28;20523;-89
2022/02/06 09:45:58;;;;;;;60.40;9.90;;;9.20;99.90;;;;;;5052149;28;20267;-83
2022/02/06 09:48:26;;;;;;;53.70;10.03;;;9.20;99.90;;;;;;5053053;28;20205;-91
2022/02/06 09:50:56;;;;;;;58.63;11.00;;;9.10;99.90;;;;;;5072479;28;20228;-89
2022/02/06 09:53:23;;;;;;;52.40;9.33;;;9.20;99.90;;;;;;5071369;28;20649;-91
2022/02/06 09:55:51;;;;;;;47.27;8.97;;;9.20;99.90;;;;;;5072136;28;20217;-88
2022/02/06 09:58:44;;;;;;;40.97;8.77;;;9.20;99.90;;;;;;5070995;28;20621;-88
2022/02/06 10:01:05;;;;;;;62.60;11.13;;;9.20;99.90;;;;;;5070890;28;20288;-88
2022/02/06 10:03:37;;;;;;;56.83;10.43;;;9.20;99.90;;;;;;5057597;28;20212;-89
2022/02/06 10:06:07;;;;;;;55.80;9.90;;;9.20;99.90;;;;;;5070396;28;20208;-88
2022/02/06 10:08:39;;;;;;;48.00;10.70;;;9.20;99.90;;;;;;5070454;28;20244;-85
2022/02/06 10:11:11;;;;;;;51.53;9.10;;;9.20;99.90;;;;;;5064589;28;20602;-89
2022/02/06 10:13:39;;;;;;;57.00;10.80;;;9.20;99.90;;;;;;5051483;28;20226;-91
2022/02/06 10:16:07;;;;;;;52.70;9.93;;;9.20;99.90;;;;;;5052749;28;20279;-91
2022/02/06 10:18:35;;;;;;;56.00;9.97;;;9.20;99.90;;;;;;5071848;28;20197;-87
2022/02/06 10:21:03;;;;;;;18.70;3.43;;;9.30;99.90;;;;;;5072109;28;20197;-91
2022/02/06 10:23:36;;;;;;;13.97;3.17;;;8.30;99.90;;;;;;5074448;28;20482;-92
2022/02/06 10:26:20;;;;;;;13.67;3.83;;;7.50;99.90;;;;;;5077650;28;20201;-91
2022/02/06 10:28:58;;;;;;;32.73;4.73;;;7.10;99.90;;;;;;5081399;28;20200;-92
2022/02/06 10:31:26;;;;;;;17.50;2.50;;;6.80;99.90;;;;;;5074752;28;20225;-89
2022/02/06 10:33:55;;;;;;;13.93;3.57;;;6.70;99.90;;;;;;5070798;28;20209;-85
2022/02/06 10:36:24;;;;;;;30.50;4.57;;;6.70;99.90;;;;;;5063119;28;20214;-90
2022/02/06 10:39:01;;;;;;;20.53;4.40;;;6.70;99.90;;;;;;5067286;28;20204;-91
2022/02/06 10:41:30;;;;;;;24.10;4.13;;;6.70;99.90;;;;;;5072788;28;20212;-89
2022/02/06 10:44:03;;;;;;;20.23;3.90;;;6.70;99.90;;;;;;5071464;28;20431;-87
2022/02/06 10:46:31;;;;;;;21.37;3.60;;;6.80;99.90;;;;;;5070324;28;20213;-83
2022/02/06 10:49:01;;;;;;;18.73;3.93;;;6.90;99.90;;;;;;5066177;28;20205;-85
2022/02/06 10:51:43;;;;;;;12.60;2.97;;;6.90;99.90;;;;;;5064417;28;20728;-84
2022/02/06 10:54:13;;;;;;;16.70;3.10;;;6.90;99.90;;;;;;5063606;28;20212;-84
2022/02/06 10:56:59;;;;;;;19.27;3.10;;;7.00;99.90;;;;;;5067128;28;20232;-83
2022/02/06 10:59:27;;;;;;;20.90;3.13;;;7.00;99.90;;;;;;5066154;28;20216;-84
2022/02/06 11:01:54;;;;;;;26.60;3.30;;;7.10;99.90;;;;;;5067437;28;20225;-84
2022/02/06 11:04:29;;;;;;;17.13;2.77;;;7.10;99.90;;;;;;5048091;28;20276;-89
2022/02/06 11:07:12;;;;;;;15.77;2.43;;;7.10;99.90;;;;;;5060602;28;20212;-82
2022/02/06 11:09:39;;;;;;;19.57;4.07;;;7.20;99.90;;;;;;5068043;28;20213;-84
2022/02/06 11:12:13;;;;;;;18.47;3.43;;;7.20;99.90;;;;;;5067946;28;20251;-83
2022/02/06 11:14:46;;;;;;;13.87;3.07;;;7.30;99.90;;;;;;5061461;28;20244;-84
2022/02/06 11:17:19;;;;;;;16.47;2.47;;;7.30;99.90;;;;;;5064735;28;20201;-84
2022/02/06 11:19:59;;;;;;;24.43;3.30;;;7.40;99.90;;;;;;5066264;28;20255;-81
2022/02/06 11:22:27;;;;;;;13.67;2.83;;;7.50;99.90;;;;;;5059259;28;20208;-82
2022/02/06 11:24:53;;;;;;;7.33;1.40;;;7.50;99.90;;;;;;5062833;28;20934;-81
2022/02/06 11:27:22;;;;;;;11.03;2.37;;;7.50;99.90;;;;;;5060345;28;20274;-81
2022/02/06 11:29:49;;;;;;;13.40;2.57;;;7.60;99.90;;;;;;5058677;28;20214;-80
2022/02/06 11:32:16;;;;;;;13.67;2.93;;;7.70;99.90;;;;;;5053550;28;20236;-81
2022/02/06 11:34:44;;;;;;;14.70;3.40;;;7.70;99.90;;;;;;5054051;28;20217;-81
2022/02/06 11:45:57;;;;;;;19.30;3.00;;;7.90;99.90;;;;;;5054197;28;20233;-79
2022/02/06 11:48:27;;;;;;;23.83;3.40;;;8.00;99.90;;;;;;5053269;28;20210;-81
2022/02/06 11:50:55;;;;;;;16.63;2.83;;;8.00;99.90;;;;;;5057168;28;20212;-79
2022/02/06 11:53:33;;;;;;;14.93;3.17;;;8.00;99.90;;;;;;5063197;28;20253;-85
2022/02/06 11:56:00;;;;;;;14.60;3.00;;;8.00;99.90;;;;;;5060520;28;20230;-81
2022/02/06 11:58:31;;;;;;;8.60;2.17;;;8.00;99.90;;;;;;5063331;28;20221;-79
2022/02/06 12:01:26;;;;;;;16.17;2.87;;;8.10;99.90;;;;;;5057372;28;20601;-82
2022/02/06 12:03:55;;;;;;;18.23;3.30;;;8.10;99.90;;;;;;5063322;28;20189;-79
2022/02/06 12:06:25;;;;;;;13.00;2.70;;;8.10;99.90;;;;;;5048785;28;20213;-78
2022/02/06 12:09:15;;;;;;;14.53;2.43;;;8.20;99.90;;;;;;5047584;28;20205;-79
2022/02/06 12:11:42;;;;;;;18.87;3.00;;;8.20;99.90;;;;;;5066166;28;20212;-85
2022/02/06 12:14:13;;;;;;;12.83;2.73;;;8.30;99.90;;;;;;5067540;28;20229;-84
2022/02/06 12:16:52;;;;;;;11.83;2.53;;;8.30;99.90;;;;;;5068841;28;20209;-85
2022/02/06 12:19:26;;;;;;;9.07;2.27;;;8.30;99.90;;;;;;5306729;22;21200;-86
2022/02/06 12:21:55;;;;;;;12.20;2.50;;;8.40;99.90;;;;;;5091100;28;20295;-87
2022/02/06 12:24:40;;;;;;;19.03;4.33;;;8.40;99.90;;;;;;5073950;28;20213;-83
2022/02/06 12:27:25;;;;;;;15.37;2.63;;;8.50;99.90;;;;;;5089777;28;20664;-85
2022/02/06 12:30:03;;;;;;;10.17;2.47;;;8.50;99.90;;;;;;5093235;28;20215;-84
2022/02/06 12:32:31;;;;;;;11.97;2.80;;;8.60;99.90;;;;;;5069086;28;20628;-82
2022/02/06 12:37:55;;;;;;;10.13;2.27;;;8.70;99.90;;;;;;5009168;28;20202;-85
2022/02/06 12:40:26;;;;;;;9.83;1.80;;;8.70;99.90;;;;;;5039376;28;20221;-82
2022/02/06 12:42:59;;;;;;;15.23;2.43;;;8.80;99.90;;;;;;5067313;28;20578;-81
2022/02/06 12:45:29;;;;;;;13.67;3.13;;;8.80;99.90;;;;;;5066459;28;20212;-79
2022/02/06 12:48:00;;;;;;;15.17;2.90;;;8.80;99.90;;;;;;5067328;28;20205;-79
2022/02/06 12:50:30;;;;;;;12.40;2.20;;;8.80;99.90;;;;;;5071426;28;20208;-85
2022/02/06 12:52:58;;;;;;;20.43;2.93;;;8.80;99.90;;;;;;5062329;28;20637;-81
2022/02/06 12:55:28;;;;;;;15.40;2.90;;;8.80;99.90;;;;;;5067013;28;20236;-78
2022/02/06 12:57:56;;;;;;;11.10;2.50;;;8.90;99.90;;;;;;5066118;28;20201;-80
2022/02/06 13:00:46;;;;;;;18.57;2.83;;;8.90;99.90;;;;;;5050809;28;20197;-78
2022/02/06 13:03:26;;;;;;;10.50;2.30;;;9.00;99.90;;;;;;5068709;28;20233;-79
2022/02/06 13:05:59;;;;;;;11.43;2.40;;;9.00;99.90;;;;;;5067972;28;20270;-84
2022/02/06 13:08:26;;;;;;;14.87;2.43;;;8.90;99.90;;;;;;5067738;28;20652;-81
2022/02/06 13:10:58;;;;;;;12.03;2.90;;;8.90;99.90;;;;;;5061197;28;20554;-80
2022/02/06 13:13:31;;;;;;;13.23;2.27;;;8.90;99.90;;;;;;5067296;28;20644;-79
2022/02/06 13:16:16;;;;;;;12.80;2.47;;;8.90;99.90;;;;;;5068937;28;20237;-80
2022/02/06 13:19:01;;;;;;;17.10;2.33;;;9.00;99.90;;;;;;5059593;28;20237;-83
2022/02/06 13:21:42;;;;;;;17.73;3.60;;;9.00;99.90;;;;;;5048545;28;20505;-80
2022/02/06 13:24:17;;;;;;;12.97;3.73;;;9.10;99.90;;;;;;5074328;28;20193;-77
2022/02/06 13:26:55;;;;;;;19.03;3.10;;;9.10;99.90;;;;;;5088351;28;20212;-84
2022/02/06 13:29:33;;;;;;;10.03;2.87;;;9.10;99.90;;;;;;5076365;28;20233;-79
2022/02/06 13:32:19;;;;;;;17.50;3.10;;;9.10;99.90;;;;;;5067063;28;20547;-80
2022/02/06 13:35:04;;;;;;;12.80;2.63;;;9.20;99.90;;;;;;5066569;28;20598;-79
2022/02/06 13:37:42;;;;;;;9.33;2.57;;;9.20;99.90;;;;;;5059794;28;20206;-78
2022/02/06 13:40:15;;;;;;;16.93;3.73;;;9.20;99.90;;;;;;5051903;28;20203;-81
2022/02/06 13:42:54;;;;;;;16.60;3.17;;;9.20;99.90;;;;;;5057445;28;20256;-84
2022/02/06 13:45:24;;;;;;;11.50;3.17;;;9.30;99.90;;;;;;5050451;28;20610;-85
2022/02/06 13:47:54;;;;;;;12.33;2.80;;;9.30;99.90;;;;;;5053101;28;20251;-86
2022/02/06 13:50:21;;;;;;;16.97;3.77;;;9.40;99.90;;;;;;5054219;28;20867;-84
2022/02/06 13:52:48;;;;;;;16.17;3.17;;;9.40;99.90;;;;;;5069495;28;20227;-84
2022/02/06 13:55:18;;;;;;;16.83;3.07;;;9.40;99.90;;;;;;5063751;28;20201;-83
2022/02/06 13:57:46;;;;;;;12.47;3.27;;;9.40;99.90;;;;;;5056736;28;20264;-82
2022/02/06 14:00:15;;;;;;;15.03;3.87;;;9.40;99.90;;;;;;5069623;28;20204;-82
2022/02/06 14:02:53;;;;;;;15.17;3.13;;;9.40;99.90;;;;;;5068407;28;20197;-83
2022/02/06 14:05:22;;;;;;;12.13;2.57;;;9.40;99.90;;;;;;5069836;28;20205;-88
2022/02/06 14:08:02;;;;;;;14.40;3.13;;;9.40;99.90;;;;;;5064584;28;20217;-86
2022/02/06 14:10:41;;;;;;;13.37;2.67;;;9.40;99.90;;;;;;5069479;28;20315;-87
2022/02/06 14:13:08;;;;;;;15.47;3.73;;;9.40;99.90;;;;;;5069486;28;20260;-83
2022/02/06 14:15:34;;;;;;;9.93;2.50;;;9.40;99.90;;;;;;5069545;28;20652;-89
2022/02/06 14:18:07;;;;;;;12.73;2.63;;;9.30;99.90;;;;;;5069418;28;20194;-86
2022/02/06 14:20:34;;;;;;;12.87;3.37;;;9.30;99.90;;;;;;5049398;28;20700;-79
2022/02/06 14:23:04;;;;;;;7.13;2.13;;;9.30;99.90;;;;;;5069441;28;20197;-77
2022/02/06 14:25:33;;;;;;;16.37;3.03;;;9.20;99.90;;;;;;5069527;28;20212;-83
2022/02/06 14:28:15;;;;;;;13.33;2.50;;;9.20;99.90;;;;;;5063302;28;20213;-83
2022/02/06 14:30:43;;;;;;;8.83;2.57;;;9.20;99.90;;;;;;5067998;28;20893;-81
2022/02/06 14:33:12;;;;;;;14.23;2.50;;;9.20;99.90;;;;;;5067346;28;20350;-83
2022/02/06 14:35:46;;;;;;;17.63;3.23;;;9.10;99.90;;;;;;5074456;28;20231;-81
2022/02/06 14:38:20;;;;;;;14.30;2.97;;;9.10;99.90;;;;;;5077645;28;20233;-83
2022/02/06 14:40:52;;;;;;;15.13;3.30;;;9.10;99.90;;;;;;5063283;28;20870;-82
2022/02/06 14:43:33;;;;;;;13.27;3.13;;;9.20;99.90;;;;;;5061896;28;20206;-83